sensor_id;sensor_type;location;lat;lon;timestamp;P1;durP1;ratioP1;P2;durP2;ratioP2
61685;SDS011;47592;45.904;8.978;2024-01-15T00:02:01;32.97;;;25.42;;
61685;SDS011;47592;45.904;8.978;2024-01-15T00:04:28;35.15;;;26.10;;
61685;SDS011;47592;45.904;8.978;2024-01-15T00:06:55;36.58;;;25.23;;
61685;SDS011;47592;45.904;8.978;2024-01-15T00:09:24;29.88;;;23.40;;
61685;SDS011;47592;45.904;8.978;2024-01-15T00:11:49;30.80;;;22.70;;
61685;SDS011;47592;45.904;8.978;2024-01-15T00:14:17;27.65;;;20.33;;
61685;SDS011;47592;45.904;8.978;2024-01-15T00:16:45;31.50;;;21.63;;
61685;SDS011;47592;45.904;8.978;2024-01-15T00:19:14;26.27;;;20.58;;
61685;SDS011;47592;45.904;8.978;2024-01-15T00:21:39;27.60;;;20.10;;
61685;SDS011;47592;45.904;8.978;2024-01-15T00:24:07;27.15;;;19.65;;
61685;SDS011;47592;45.904;8.978;2024-01-15T00:26:33;29.20;;;20.63;;
61685;SDS011;47592;45.904;8.978;2024-01-15T00:28:58;30.08;;;21.05;;
61685;SDS011;47592;45.904;8.978;2024-01-15T00:31:26;28.70;;;20.75;;
61685;SDS011;47592;45.904;8.978;2024-01-15T00:33:54;27.20;;;20.60;;
61685;SDS011;47592;45.904;8.978;2024-01-15T00:36:19;26.33;;;18.83;;
61685;SDS011;47592;45.904;8.978;2024-01-15T00:38:45;27.13;;;18.40;;
61685;SDS011;47592;45.904;8.978;2024-01-15T00:41:12;24.50;;;17.02;;
61685;SDS011;47592;45.904;8.978;2024-01-15T00:43:38;24.35;;;17.17;;
61685;SDS011;47592;45.904;8.978;2024-01-15T00:46:03;21.13;;;16.83;;
61685;SDS011;47592;45.904;8.978;2024-01-15T00:48:29;24.52;;;18.48;;
61685;SDS011;47592;45.904;8.978;2024-01-15T00:50:54;22.83;;;17.55;;
61685;SDS011;47592;45.904;8.978;2024-01-15T00:53:20;24.20;;;17.35;;
61685;SDS011;47592;45.904;8.978;2024-01-15T00:55:47;22.80;;;17.27;;
61685;SDS011;47592;45.904;8.978;2024-01-15T00:58:18;23.60;;;17.13;;
61685;SDS011;47592;45.904;8.978;2024-01-15T01:00:46;23.67;;;17.80;;
61685;SDS011;47592;45.904;8.978;2024-01-15T01:03:11;23.73;;;17.92;;
61685;SDS011;47592;45.904;8.978;2024-01-15T01:05:37;24.67;;;17.52;;
61685;SDS011;47592;45.904;8.978;2024-01-15T01:08:02;26.35;;;17.88;;
61685;SDS011;47592;45.904;8.978;2024-01-15T01:10:28;22.63;;;16.55;;
61685;SDS011;47592;45.904;8.978;2024-01-15T01:12:56;23.13;;;16.80;;
61685;SDS011;47592;45.904;8.978;2024-01-15T01:15:21;24.17;;;16.63;;
61685;SDS011;47592;45.904;8.978;2024-01-15T01:17:49;24.60;;;17.85;;
61685;SDS011;47592;45.904;8.978;2024-01-15T01:20:15;22.88;;;17.85;;
61685;SDS011;47592;45.904;8.978;2024-01-15T01:22:40;24.55;;;18.88;;
61685;SDS011;47592;45.904;8.978;2024-01-15T01:25:06;27.45;;;18.80;;
61685;SDS011;47592;45.904;8.978;2024-01-15T01:27:34;27.55;;;18.73;;
61685;SDS011;47592;45.904;8.978;2024-01-15T01:30:00;24.52;;;18.52;;
61685;SDS011;47592;45.904;8.978;2024-01-15T01:32:28;23.15;;;17.20;;
61685;SDS011;47592;45.904;8.978;2024-01-15T01:34:55;25.25;;;18.40;;
61685;SDS011;47592;45.904;8.978;2024-01-15T01:37:24;24.30;;;17.73;;
61685;SDS011;47592;45.904;8.978;2024-01-15T01:39:49;24.38;;;17.83;;
61685;SDS011;47592;45.904;8.978;2024-01-15T01:42:19;23.67;;;17.55;;
61685;SDS011;47592;45.904;8.978;2024-01-15T01:44:44;23.38;;;18.13;;
61685;SDS011;47592;45.904;8.978;2024-01-15T01:47:10;21.60;;;17.55;;
61685;SDS011;47592;45.904;8.978;2024-01-15T01:49:35;23.40;;;17.73;;
61685;SDS011;47592;45.904;8.978;2024-01-15T01:52:04;25.65;;;18.55;;
61685;SDS011;47592;45.904;8.978;2024-01-15T01:54:32;24.85;;;17.95;;
61685;SDS011;47592;45.904;8.978;2024-01-15T01:56:58;23.67;;;17.27;;
61685;SDS011;47592;45.904;8.978;2024-01-15T01:59:24;22.15;;;17.17;;
61685;SDS011;47592;45.904;8.978;2024-01-15T02:01:56;23.83;;;17.08;;
61685;SDS011;47592;45.904;8.978;2024-01-15T02:04:23;22.02;;;16.63;;
61685;SDS011;47592;45.904;8.978;2024-01-15T02:06:49;21.17;;;16.27;;
61685;SDS011;47592;45.904;8.978;2024-01-15T02:09:15;22.50;;;15.85;;
61685;SDS011;47592;45.904;8.978;2024-01-15T02:11:41;28.58;;;17.45;;
61685;SDS011;47592;45.904;8.978;2024-01-15T02:14:09;24.33;;;16.90;;
61685;SDS011;47592;45.904;8.978;2024-01-15T02:16:35;20.95;;;15.90;;
61685;SDS011;47592;45.904;8.978;2024-01-15T02:19:03;23.33;;;16.77;;
61685;SDS011;47592;45.904;8.978;2024-01-15T02:21:28;20.52;;;15.82;;
61685;SDS011;47592;45.904;8.978;2024-01-15T02:23:56;22.52;;;16.38;;
61685;SDS011;47592;45.904;8.978;2024-01-15T02:26:21;21.40;;;16.52;;
61685;SDS011;47592;45.904;8.978;2024-01-15T02:28:47;20.77;;;16.05;;
61685;SDS011;47592;45.904;8.978;2024-01-15T02:31:13;22.55;;;16.15;;
61685;SDS011;47592;45.904;8.978;2024-01-15T02:33:38;22.75;;;15.95;;
61685;SDS011;47592;45.904;8.978;2024-01-15T02:36:06;21.83;;;16.67;;
61685;SDS011;47592;45.904;8.978;2024-01-15T02:38:34;21.65;;;15.68;;
61685;SDS011;47592;45.904;8.978;2024-01-15T02:41:01;21.25;;;15.85;;
61685;SDS011;47592;45.904;8.978;2024-01-15T02:43:29;20.02;;;15.35;;
61685;SDS011;47592;45.904;8.978;2024-01-15T02:45:54;20.08;;;15.60;;
61685;SDS011;47592;45.904;8.978;2024-01-15T02:48:20;20.95;;;15.25;;
61685;SDS011;47592;45.904;8.978;2024-01-15T02:50:45;22.75;;;15.13;;
61685;SDS011;47592;45.904;8.978;2024-01-15T02:53:13;17.83;;;14.63;;
61685;SDS011;47592;45.904;8.978;2024-01-15T02:55:38;20.17;;;14.63;;
61685;SDS011;47592;45.904;8.978;2024-01-15T02:58:09;21.52;;;14.80;;
61685;SDS011;47592;45.904;8.978;2024-01-15T03:00:34;19.92;;;14.98;;
61685;SDS011;47592;45.904;8.978;2024-01-15T03:03:02;21.13;;;14.73;;
61685;SDS011;47592;45.904;8.978;2024-01-15T03:05:27;20.67;;;14.65;;
61685;SDS011;47592;45.904;8.978;2024-01-15T03:07:52;19.52;;;15.10;;
61685;SDS011;47592;45.904;8.978;2024-01-15T03:10:18;19.38;;;14.75;;
61685;SDS011;47592;45.904;8.978;2024-01-15T03:12:45;20.65;;;15.43;;
61685;SDS011;47592;45.904;8.978;2024-01-15T03:15:11;19.77;;;15.15;;
61685;SDS011;47592;45.904;8.978;2024-01-15T03:17:36;21.08;;;15.20;;
61685;SDS011;47592;45.904;8.978;2024-01-15T03:20:01;20.05;;;15.05;;
61685;SDS011;47592;45.904;8.978;2024-01-15T03:22:32;21.95;;;14.70;;
61685;SDS011;47592;45.904;8.978;2024-01-15T03:24:57;19.20;;;15.13;;
61685;SDS011;47592;45.904;8.978;2024-01-15T03:27:23;18.55;;;14.45;;
61685;SDS011;47592;45.904;8.978;2024-01-15T03:29:53;19.23;;;15.02;;
61685;SDS011;47592;45.904;8.978;2024-01-15T03:32:20;19.63;;;14.13;;
61685;SDS011;47592;45.904;8.978;2024-01-15T03:34:46;20.05;;;14.90;;
61685;SDS011;47592;45.904;8.978;2024-01-15T03:37:15;23.27;;;15.23;;
61685;SDS011;47592;45.904;8.978;2024-01-15T03:39:42;21.90;;;15.38;;
61685;SDS011;47592;45.904;8.978;2024-01-15T03:42:08;23.92;;;16.65;;
61685;SDS011;47592;45.904;8.978;2024-01-15T03:44:33;19.30;;;14.77;;
61685;SDS011;47592;45.904;8.978;2024-01-15T03:47:01;20.30;;;15.55;;
61685;SDS011;47592;45.904;8.978;2024-01-15T03:49:26;20.00;;;15.43;;
61685;SDS011;47592;45.904;8.978;2024-01-15T03:51:51;19.17;;;14.60;;
61685;SDS011;47592;45.904;8.978;2024-01-15T03:54:19;19.58;;;14.57;;
61685;SDS011;47592;45.904;8.978;2024-01-15T03:56:44;19.02;;;14.38;;
61685;SDS011;47592;45.904;8.978;2024-01-15T03:59:10;18.73;;;13.52;;
61685;SDS011;47592;45.904;8.978;2024-01-15T04:01:35;19.05;;;13.75;;
61685;SDS011;47592;45.904;8.978;2024-01-15T04:04:03;19.60;;;12.60;;
61685;SDS011;47592;45.904;8.978;2024-01-15T04:06:28;19.05;;;13.43;;
61685;SDS011;47592;45.904;8.978;2024-01-15T04:08:54;18.50;;;13.73;;
61685;SDS011;47592;45.904;8.978;2024-01-15T04:11:19;19.58;;;14.15;;
61685;SDS011;47592;45.904;8.978;2024-01-15T04:13:47;18.83;;;14.07;;
61685;SDS011;47592;45.904;8.978;2024-01-15T04:16:13;20.67;;;16.15;;
61685;SDS011;47592;45.904;8.978;2024-01-15T04:18:38;21.00;;;14.65;;
61685;SDS011;47592;45.904;8.978;2024-01-15T04:21:04;22.50;;;14.73;;
61685;SDS011;47592;45.904;8.978;2024-01-15T04:23:33;21.75;;;16.02;;
61685;SDS011;47592;45.904;8.978;2024-01-15T04:26:00;23.05;;;17.58;;
61685;SDS011;47592;45.904;8.978;2024-01-15T04:28:26;24.17;;;18.02;;
61685;SDS011;47592;45.904;8.978;2024-01-15T04:30:51;26.13;;;19.67;;
61685;SDS011;47592;45.904;8.978;2024-01-15T04:33:16;25.00;;;19.00;;
61685;SDS011;47592;45.904;8.978;2024-01-15T04:35:44;26.63;;;20.00;;
61685;SDS011;47592;45.904;8.978;2024-01-15T04:38:09;26.50;;;19.83;;
61685;SDS011;47592;45.904;8.978;2024-01-15T04:40:37;28.08;;;20.15;;
61685;SDS011;47592;45.904;8.978;2024-01-15T04:43:03;26.85;;;19.70;;
61685;SDS011;47592;45.904;8.978;2024-01-15T04:45:30;25.75;;;19.67;;
61685;SDS011;47592;45.904;8.978;2024-01-15T04:47:55;25.98;;;19.60;;
61685;SDS011;47592;45.904;8.978;2024-01-15T04:50:22;27.40;;;19.88;;
61685;SDS011;47592;45.904;8.978;2024-01-15T04:52:47;29.73;;;20.42;;
61685;SDS011;47592;45.904;8.978;2024-01-15T04:55:13;26.10;;;19.42;;
61685;SDS011;47592;45.904;8.978;2024-01-15T04:57:41;24.38;;;19.48;;
61685;SDS011;47592;45.904;8.978;2024-01-15T05:00:09;27.95;;;20.83;;
61685;SDS011;47592;45.904;8.978;2024-01-15T05:02:37;25.65;;;20.20;;
61685;SDS011;47592;45.904;8.978;2024-01-15T05:05:03;30.90;;;21.83;;
61685;SDS011;47592;45.904;8.978;2024-01-15T05:07:28;30.48;;;21.98;;
61685;SDS011;47592;45.904;8.978;2024-01-15T05:09:53;30.05;;;22.05;;
61685;SDS011;47592;45.904;8.978;2024-01-15T05:12:19;29.95;;;22.10;;
61685;SDS011;47592;45.904;8.978;2024-01-15T05:14:44;31.08;;;22.17;;
61685;SDS011;47592;45.904;8.978;2024-01-15T05:17:10;29.52;;;22.15;;
61685;SDS011;47592;45.904;8.978;2024-01-15T05:19:37;29.23;;;22.83;;
61685;SDS011;47592;45.904;8.978;2024-01-15T05:22:05;32.97;;;24.20;;
61685;SDS011;47592;45.904;8.978;2024-01-15T05:24:32;29.83;;;22.88;;
61685;SDS011;47592;45.904;8.978;2024-01-15T05:26:58;30.77;;;22.95;;
61685;SDS011;47592;45.904;8.978;2024-01-15T05:29:23;31.30;;;22.83;;
61685;SDS011;47592;45.904;8.978;2024-01-15T05:31:52;31.70;;;22.75;;
61685;SDS011;47592;45.904;8.978;2024-01-15T05:34:22;32.10;;;23.67;;
61685;SDS011;47592;45.904;8.978;2024-01-15T05:36:47;30.83;;;22.65;;
61685;SDS011;47592;45.904;8.978;2024-01-15T05:39:15;33.00;;;22.88;;
61685;SDS011;47592;45.904;8.978;2024-01-15T05:41:40;32.45;;;23.15;;
61685;SDS011;47592;45.904;8.978;2024-01-15T05:44:06;30.00;;;23.27;;
61685;SDS011;47592;45.904;8.978;2024-01-15T05:46:31;28.08;;;22.42;;
61685;SDS011;47592;45.904;8.978;2024-01-15T05:48:59;30.88;;;23.38;;
61685;SDS011;47592;45.904;8.978;2024-01-15T05:51:24;32.05;;;22.88;;
61685;SDS011;47592;45.904;8.978;2024-01-15T05:53:54;34.65;;;23.35;;
61685;SDS011;47592;45.904;8.978;2024-01-15T05:56:20;28.25;;;22.73;;
61685;SDS011;47592;45.904;8.978;2024-01-15T05:58:48;30.08;;;22.80;;
61685;SDS011;47592;45.904;8.978;2024-01-15T06:01:13;31.55;;;22.35;;
61685;SDS011;47592;45.904;8.978;2024-01-15T06:03:38;31.17;;;21.67;;
61685;SDS011;47592;45.904;8.978;2024-01-15T06:06:04;30.90;;;23.63;;
61685;SDS011;47592;45.904;8.978;2024-01-15T06:08:29;33.00;;;25.02;;
61685;SDS011;47592;45.904;8.978;2024-01-15T06:11:00;32.40;;;25.33;;
61685;SDS011;47592;45.904;8.978;2024-01-15T06:13:28;33.40;;;24.25;;
61685;SDS011;47592;45.904;8.978;2024-01-15T06:15:58;32.90;;;23.95;;
61685;SDS011;47592;45.904;8.978;2024-01-15T06:18:23;33.00;;;24.30;;
61685;SDS011;47592;45.904;8.978;2024-01-15T06:20:54;32.25;;;24.00;;
61685;SDS011;47592;45.904;8.978;2024-01-15T06:23:19;31.80;;;23.13;;
61685;SDS011;47592;45.904;8.978;2024-01-15T06:25:44;33.55;;;24.67;;
61685;SDS011;47592;45.904;8.978;2024-01-15T06:28:10;32.95;;;23.52;;
61685;SDS011;47592;45.904;8.978;2024-01-15T06:30:35;32.13;;;24.48;;
61685;SDS011;47592;45.904;8.978;2024-01-15T06:33:05;32.88;;;23.17;;
61685;SDS011;47592;45.904;8.978;2024-01-15T06:35:31;33.13;;;23.83;;
61685;SDS011;47592;45.904;8.978;2024-01-15T06:37:59;33.72;;;23.95;;
61685;SDS011;47592;45.904;8.978;2024-01-15T06:40:24;35.20;;;23.52;;
61685;SDS011;47592;45.904;8.978;2024-01-15T06:42:49;32.97;;;25.42;;
61685;SDS011;47592;45.904;8.978;2024-01-15T06:45:17;35.10;;;25.70;;
61685;SDS011;47592;45.904;8.978;2024-01-15T06:47:42;33.95;;;24.08;;
61685;SDS011;47592;45.904;8.978;2024-01-15T06:50:08;30.98;;;23.30;;
61685;SDS011;47592;45.904;8.978;2024-01-15T06:52:36;35.63;;;24.80;;
61685;SDS011;47592;45.904;8.978;2024-01-15T06:55:01;32.70;;;24.65;;
61685;SDS011;47592;45.904;8.978;2024-01-15T06:57:30;31.70;;;23.33;;
61685;SDS011;47592;45.904;8.978;2024-01-15T06:59:56;36.17;;;25.40;;
61685;SDS011;47592;45.904;8.978;2024-01-15T07:02:24;37.00;;;25.83;;
61685;SDS011;47592;45.904;8.978;2024-01-15T07:04:49;36.83;;;25.92;;
61685;SDS011;47592;45.904;8.978;2024-01-15T07:07:14;36.92;;;25.60;;
61685;SDS011;47592;45.904;8.978;2024-01-15T07:09:40;37.63;;;26.95;;
61685;SDS011;47592;45.904;8.978;2024-01-15T07:12:08;39.58;;;27.75;;
61685;SDS011;47592;45.904;8.978;2024-01-15T07:14:35;37.97;;;26.20;;
61685;SDS011;47592;45.904;8.978;2024-01-15T07:17:01;36.13;;;25.48;;
61685;SDS011;47592;45.904;8.978;2024-01-15T07:19:31;32.97;;;24.85;;
61685;SDS011;47592;45.904;8.978;2024-01-15T07:21:57;33.42;;;24.40;;
61685;SDS011;47592;45.904;8.978;2024-01-15T07:24:25;33.72;;;23.17;;
61685;SDS011;47592;45.904;8.978;2024-01-15T07:26:50;33.03;;;22.85;;
61685;SDS011;47592;45.904;8.978;2024-01-15T07:29:15;30.92;;;22.75;;
61685;SDS011;47592;45.904;8.978;2024-01-15T07:31:47;33.25;;;22.67;;
61685;SDS011;47592;45.904;8.978;2024-01-15T07:34:15;31.95;;;22.98;;
61685;SDS011;47592;45.904;8.978;2024-01-15T07:36:41;29.58;;;22.75;;
61685;SDS011;47592;45.904;8.978;2024-01-15T07:39:07;30.58;;;23.05;;
61685;SDS011;47592;45.904;8.978;2024-01-15T07:41:32;31.27;;;22.67;;
61685;SDS011;47592;45.904;8.978;2024-01-15T07:43:58;30.85;;;21.70;;
61685;SDS011;47592;45.904;8.978;2024-01-15T07:46:26;35.78;;;23.17;;
61685;SDS011;47592;45.904;8.978;2024-01-15T07:48:53;31.00;;;22.77;;
61685;SDS011;47592;45.904;8.978;2024-01-15T07:51:23;32.05;;;22.13;;
61685;SDS011;47592;45.904;8.978;2024-01-15T07:53:53;30.27;;;22.40;;
61685;SDS011;47592;45.904;8.978;2024-01-15T07:56:20;34.70;;;23.13;;
61685;SDS011;47592;45.904;8.978;2024-01-15T07:58:46;30.75;;;22.60;;
61685;SDS011;47592;45.904;8.978;2024-01-15T08:01:11;29.05;;;22.80;;
61685;SDS011;47592;45.904;8.978;2024-01-15T08:03:37;32.53;;;23.63;;
61685;SDS011;47592;45.904;8.978;2024-01-15T08:06:02;34.70;;;24.13;;
61685;SDS011;47592;45.904;8.978;2024-01-15T08:08:30;33.65;;;24.55;;
61685;SDS011;47592;45.904;8.978;2024-01-15T08:10:55;35.72;;;26.25;;
61685;SDS011;47592;45.904;8.978;2024-01-15T08:13:21;33.33;;;26.05;;
61685;SDS011;47592;45.904;8.978;2024-01-15T08:15:48;34.08;;;25.10;;
61685;SDS011;47592;45.904;8.978;2024-01-15T08:18:15;33.97;;;25.42;;
61685;SDS011;47592;45.904;8.978;2024-01-15T08:20:43;35.85;;;25.20;;
61685;SDS011;47592;45.904;8.978;2024-01-15T08:23:09;39.63;;;26.95;;
61685;SDS011;47592;45.904;8.978;2024-01-15T08:25:34;34.35;;;24.85;;
61685;SDS011;47592;45.904;8.978;2024-01-15T08:28:00;35.38;;;25.58;;
61685;SDS011;47592;45.904;8.978;2024-01-15T08:30:25;33.70;;;24.65;;
61685;SDS011;47592;45.904;8.978;2024-01-15T08:32:53;33.72;;;25.35;;
61685;SDS011;47592;45.904;8.978;2024-01-15T08:35:18;35.22;;;25.02;;
61685;SDS011;47592;45.904;8.978;2024-01-15T08:37:50;32.73;;;24.77;;
61685;SDS011;47592;45.904;8.978;2024-01-15T08:40:16;33.17;;;23.60;;
61685;SDS011;47592;45.904;8.978;2024-01-15T08:42:45;33.50;;;24.05;;
61685;SDS011;47592;45.904;8.978;2024-01-15T08:45:14;32.83;;;24.48;;
61685;SDS011;47592;45.904;8.978;2024-01-15T08:47:40;35.17;;;25.10;;
61685;SDS011;47592;45.904;8.978;2024-01-15T08:50:05;36.65;;;25.75;;
61685;SDS011;47592;45.904;8.978;2024-01-15T08:52:34;32.35;;;24.27;;
61685;SDS011;47592;45.904;8.978;2024-01-15T08:55:07;31.88;;;24.17;;
61685;SDS011;47592;45.904;8.978;2024-01-15T08:57:32;35.35;;;24.48;;
61685;SDS011;47592;45.904;8.978;2024-01-15T08:59:58;34.78;;;23.48;;
61685;SDS011;47592;45.904;8.978;2024-01-15T09:02:24;33.53;;;24.27;;
61685;SDS011;47592;45.904;8.978;2024-01-15T09:04:52;33.83;;;24.88;;
61685;SDS011;47592;45.904;8.978;2024-01-15T09:07:17;36.05;;;25.95;;
61685;SDS011;47592;45.904;8.978;2024-01-15T09:09:43;33.13;;;24.20;;
61685;SDS011;47592;45.904;8.978;2024-01-15T09:12:08;30.70;;;22.92;;
61685;SDS011;47592;45.904;8.978;2024-01-15T09:14:34;27.80;;;21.05;;
61685;SDS011;47592;45.904;8.978;2024-01-15T09:17:01;31.13;;;22.00;;
61685;SDS011;47592;45.904;8.978;2024-01-15T09:19:28;27.85;;;19.00;;
61685;SDS011;47592;45.904;8.978;2024-01-15T09:21:53;27.20;;;19.52;;
61685;SDS011;47592;45.904;8.978;2024-01-15T09:24:21;27.13;;;18.83;;
61685;SDS011;47592;45.904;8.978;2024-01-15T09:26:47;30.38;;;19.88;;
61685;SDS011;47592;45.904;8.978;2024-01-15T09:29:14;22.55;;;15.93;;
61685;SDS011;47592;45.904;8.978;2024-01-15T09:31:41;23.20;;;17.02;;
61685;SDS011;47592;45.904;8.978;2024-01-15T09:34:08;21.67;;;15.68;;
61685;SDS011;47592;45.904;8.978;2024-01-15T09:36:38;22.63;;;14.50;;
61685;SDS011;47592;45.904;8.978;2024-01-15T09:39:05;19.08;;;13.48;;
61685;SDS011;47592;45.904;8.978;2024-01-15T09:41:33;22.33;;;14.00;;
61685;SDS011;47592;45.904;8.978;2024-01-15T09:44:03;19.88;;;12.73;;
61685;SDS011;47592;45.904;8.978;2024-01-15T09:46:32;20.77;;;14.40;;
61685;SDS011;47592;45.904;8.978;2024-01-15T09:48:58;20.77;;;13.90;;
61685;SDS011;47592;45.904;8.978;2024-01-15T09:51:28;21.20;;;13.70;;
61685;SDS011;47592;45.904;8.978;2024-01-15T09:53:57;19.15;;;14.07;;
61685;SDS011;47592;45.904;8.978;2024-01-15T09:56:30;20.65;;;13.77;;
61685;SDS011;47592;45.904;8.978;2024-01-15T09:58:58;20.90;;;13.35;;
61685;SDS011;47592;45.904;8.978;2024-01-15T10:01:23;21.55;;;13.88;;
61685;SDS011;47592;45.904;8.978;2024-01-15T10:03:50;22.10;;;13.23;;
61685;SDS011;47592;45.904;8.978;2024-01-15T10:06:18;20.05;;;12.98;;
61685;SDS011;47592;45.904;8.978;2024-01-15T10:08:47;17.92;;;12.35;;
61685;SDS011;47592;45.904;8.978;2024-01-15T10:11:16;18.17;;;13.02;;
61685;SDS011;47592;45.904;8.978;2024-01-15T10:13:46;17.85;;;12.57;;
61685;SDS011;47592;45.904;8.978;2024-01-15T10:16:12;18.67;;;12.45;;
61685;SDS011;47592;45.904;8.978;2024-01-15T10:18:37;17.92;;;12.13;;
61685;SDS011;47592;45.904;8.978;2024-01-15T10:21:07;17.40;;;12.65;;
61685;SDS011;47592;45.904;8.978;2024-01-15T10:23:33;18.83;;;12.38;;
61685;SDS011;47592;45.904;8.978;2024-01-15T10:26:01;19.75;;;13.30;;
61685;SDS011;47592;45.904;8.978;2024-01-15T10:28:27;17.52;;;11.88;;
61685;SDS011;47592;45.904;8.978;2024-01-15T10:30:56;18.15;;;10.73;;
61685;SDS011;47592;45.904;8.978;2024-01-15T10:33:24;14.10;;;10.20;;
61685;SDS011;47592;45.904;8.978;2024-01-15T10:35:51;15.52;;;10.80;;
61685;SDS011;47592;45.904;8.978;2024-01-15T10:38:18;16.20;;;10.57;;
61685;SDS011;47592;45.904;8.978;2024-01-15T10:40:49;15.40;;;9.75;;
61685;SDS011;47592;45.904;8.978;2024-01-15T10:43:16;15.82;;;8.95;;
61685;SDS011;47592;45.904;8.978;2024-01-15T10:45:43;13.40;;;8.75;;
61685;SDS011;47592;45.904;8.978;2024-01-15T10:48:11;13.40;;;8.75;;
61685;SDS011;47592;45.904;8.978;2024-01-15T10:50:37;13.77;;;9.20;;
61685;SDS011;47592;45.904;8.978;2024-01-15T10:53:02;14.80;;;10.25;;
61685;SDS011;47592;45.904;8.978;2024-01-15T10:55:34;12.60;;;8.35;;
61685;SDS011;47592;45.904;8.978;2024-01-15T10:58:04;12.35;;;8.25;;
61685;SDS011;47592;45.904;8.978;2024-01-15T11:00:30;12.25;;;8.32;;
61685;SDS011;47592;45.904;8.978;2024-01-15T11:02:55;11.38;;;6.15;;
61685;SDS011;47592;45.904;8.978;2024-01-15T11:05:28;8.00;;;5.18;;
61685;SDS011;47592;45.904;8.978;2024-01-15T11:07:58;12.55;;;8.15;;
61685;SDS011;47592;45.904;8.978;2024-01-15T11:10:45;14.30;;;8.98;;
61685;SDS011;47592;45.904;8.978;2024-01-15T11:18:28;12.05;;;8.15;;
61685;SDS011;47592;45.904;8.978;2024-01-15T11:23:42;12.20;;;8.77;;
61685;SDS011;47592;45.904;8.978;2024-01-15T11:28:57;13.75;;;9.35;;
61685;SDS011;47592;45.904;8.978;2024-01-15T11:31:28;13.90;;;9.18;;
61685;SDS011;47592;45.904;8.978;2024-01-15T11:34:03;13.02;;;8.73;;
61685;SDS011;47592;45.904;8.978;2024-01-15T11:41:53;14.95;;;9.90;;
61685;SDS011;47592;45.904;8.978;2024-01-15T11:44:20;12.27;;;8.57;;
61685;SDS011;47592;45.904;8.978;2024-01-15T11:46:47;14.52;;;9.07;;
61685;SDS011;47592;45.904;8.978;2024-01-15T11:52:27;16.77;;;9.70;;
61685;SDS011;47592;45.904;8.978;2024-01-15T12:00:10;14.77;;;8.70;;
61685;SDS011;47592;45.904;8.978;2024-01-15T12:02:37;13.45;;;9.43;;
61685;SDS011;47592;45.904;8.978;2024-01-15T12:05:03;14.20;;;10.05;;
61685;SDS011;47592;45.904;8.978;2024-01-15T12:07:34;14.57;;;9.98;;
61685;SDS011;47592;45.904;8.978;2024-01-15T12:10:00;16.45;;;10.48;;
61685;SDS011;47592;45.904;8.978;2024-01-15T12:15:24;14.45;;;9.48;;
61685;SDS011;47592;45.904;8.978;2024-01-15T12:17:50;15.90;;;10.82;;
61685;SDS011;47592;45.904;8.978;2024-01-15T12:20:17;14.63;;;10.10;;
61685;SDS011;47592;45.904;8.978;2024-01-15T12:22:43;13.00;;;9.30;;
61685;SDS011;47592;45.904;8.978;2024-01-15T12:25:08;13.13;;;9.50;;
61685;SDS011;47592;45.904;8.978;2024-01-15T12:27:36;15.10;;;9.65;;
61685;SDS011;47592;45.904;8.978;2024-01-15T12:30:01;15.18;;;9.48;;
61685;SDS011;47592;45.904;8.978;2024-01-15T12:32:27;15.20;;;9.27;;
61685;SDS011;47592;45.904;8.978;2024-01-15T12:34:52;14.20;;;9.13;;
61685;SDS011;47592;45.904;8.978;2024-01-15T12:37:18;13.80;;;9.88;;
61685;SDS011;47592;45.904;8.978;2024-01-15T12:39:44;15.50;;;9.68;;
61685;SDS011;47592;45.904;8.978;2024-01-15T12:42:14;13.00;;;8.90;;
61685;SDS011;47592;45.904;8.978;2024-01-15T12:44:39;12.85;;;9.27;;
61685;SDS011;47592;45.904;8.978;2024-01-15T12:47:05;10.95;;;7.07;;
61685;SDS011;47592;45.904;8.978;2024-01-15T12:49:33;11.63;;;7.13;;
61685;SDS011;47592;45.904;8.978;2024-01-15T12:52:07;10.55;;;7.28;;
61685;SDS011;47592;45.904;8.978;2024-01-15T12:54:35;11.20;;;7.05;;
61685;SDS011;47592;45.904;8.978;2024-01-15T12:57:03;10.82;;;7.63;;
61685;SDS011;47592;45.904;8.978;2024-01-15T12:59:28;14.25;;;8.27;;
61685;SDS011;47592;45.904;8.978;2024-01-15T13:01:54;12.55;;;7.72;;
61685;SDS011;47592;45.904;8.978;2024-01-15T13:04:23;11.45;;;7.97;;
61685;SDS011;47592;45.904;8.978;2024-01-15T13:06:52;13.20;;;8.63;;
61685;SDS011;47592;45.904;8.978;2024-01-15T13:09:18;11.60;;;7.90;;
61685;SDS011;47592;45.904;8.978;2024-01-15T13:11:44;13.75;;;8.25;;
61685;SDS011;47592;45.904;8.978;2024-01-15T13:14:10;12.63;;;8.15;;
61685;SDS011;47592;45.904;8.978;2024-01-15T13:16:36;13.07;;;8.35;;
61685;SDS011;47592;45.904;8.978;2024-01-15T13:19:01;14.30;;;8.95;;
61685;SDS011;47592;45.904;8.978;2024-01-15T13:21:28;14.32;;;8.60;;
61685;SDS011;47592;45.904;8.978;2024-01-15T13:23:57;13.27;;;8.48;;
61685;SDS011;47592;45.904;8.978;2024-01-15T13:26:22;11.75;;;8.15;;
61685;SDS011;47592;45.904;8.978;2024-01-15T13:28:50;13.93;;;8.05;;
61685;SDS011;47592;45.904;8.978;2024-01-15T13:31:18;12.80;;;8.57;;
61685;SDS011;47592;45.904;8.978;2024-01-15T13:33:43;17.73;;;8.38;;
61685;SDS011;47592;45.904;8.978;2024-01-15T13:36:09;13.10;;;7.72;;
61685;SDS011;47592;45.904;8.978;2024-01-15T13:38:36;13.77;;;8.20;;
61685;SDS011;47592;45.904;8.978;2024-01-15T13:41:07;11.20;;;7.97;;
61685;SDS011;47592;45.904;8.978;2024-01-15T13:43:33;13.40;;;8.15;;
61685;SDS011;47592;45.904;8.978;2024-01-15T13:45:58;12.98;;;8.20;;
61685;SDS011;47592;45.904;8.978;2024-01-15T13:48:24;14.05;;;8.65;;
61685;SDS011;47592;45.904;8.978;2024-01-15T13:50:54;15.50;;;8.10;;
61685;SDS011;47592;45.904;8.978;2024-01-15T13:53:22;14.55;;;8.45;;
61685;SDS011;47592;45.904;8.978;2024-01-15T13:55:47;12.30;;;8.35;;
61685;SDS011;47592;45.904;8.978;2024-01-15T13:58:15;12.13;;;8.30;;
61685;SDS011;47592;45.904;8.978;2024-01-15T14:00:45;12.80;;;8.40;;
61685;SDS011;47592;45.904;8.978;2024-01-15T14:03:10;12.70;;;8.15;;
61685;SDS011;47592;45.904;8.978;2024-01-15T14:05:38;13.10;;;7.88;;
61685;SDS011;47592;45.904;8.978;2024-01-15T14:08:03;13.00;;;8.10;;
61685;SDS011;47592;45.904;8.978;2024-01-15T14:10:32;13.95;;;7.78;;
61685;SDS011;47592;45.904;8.978;2024-01-15T14:13:00;10.18;;;6.90;;
61685;SDS011;47592;45.904;8.978;2024-01-15T14:15:28;11.30;;;6.70;;
61685;SDS011;47592;45.904;8.978;2024-01-15T14:17:54;11.25;;;6.97;;
61685;SDS011;47592;45.904;8.978;2024-01-15T14:20:19;10.65;;;7.07;;
61685;SDS011;47592;45.904;8.978;2024-01-15T14:22:44;12.02;;;7.45;;
61685;SDS011;47592;45.904;8.978;2024-01-15T14:25:10;11.45;;;7.45;;
61685;SDS011;47592;45.904;8.978;2024-01-15T14:27:35;11.25;;;6.70;;
61685;SDS011;47592;45.904;8.978;2024-01-15T14:30:01;10.85;;;6.85;;
61685;SDS011;47592;45.904;8.978;2024-01-15T14:32:28;10.85;;;7.05;;
61685;SDS011;47592;45.904;8.978;2024-01-15T14:34:53;10.68;;;6.90;;
61685;SDS011;47592;45.904;8.978;2024-01-15T14:37:18;11.27;;;7.20;;
61685;SDS011;47592;45.904;8.978;2024-01-15T14:39:44;11.50;;;7.47;;
61685;SDS011;47592;45.904;8.978;2024-01-15T14:42:09;11.02;;;6.93;;
61685;SDS011;47592;45.904;8.978;2024-01-15T14:44:34;13.82;;;6.93;;
61685;SDS011;47592;45.904;8.978;2024-01-15T14:47:01;14.35;;;9.52;;
61685;SDS011;47592;45.904;8.978;2024-01-15T14:49:26;12.75;;;8.15;;
61685;SDS011;47592;45.904;8.978;2024-01-15T14:51:51;12.57;;;8.32;;